Time;durP1;ratioP1;P1;durP2;ratioP2;P2;SDS_P1;SDS_P2;PMS_P1;PMS_P2;Temp;Humidity;BMP_temperature;BMP_pressure;BME280_temperature;BME280_humidity;BME280_pressure;Samples;Min_cycle;Max_cycle;Signal;HPM_P1;HPM_P2
2023/03/18 00:02:07;;;;;;;11.10;4.13;;;14.70;60.90;;;;;;5100215;28;20043;-62
2023/03/18 00:04:33;;;;;;;9.32;3.67;;;14.70;61.00;;;;;;5099515;28;20028;-62
2023/03/18 00:06:59;;;;;;;9.10;3.83;;;14.60;61.10;;;;;;5098880;28;20020;-62
2023/03/18 00:09:25;;;;;;;10.00;4.07;;;14.60;61.20;;;;;;5096080;28;20035;-62
2023/03/18 00:11:52;;;;;;;10.57;4.22;;;14.60;61.40;;;;;;5097094;28;20107;-63
2023/03/18 00:14:19;;;;;;;8.88;3.83;;;14.60;61.50;;;;;;5097280;28;20469;-62
2023/03/18 00:16:45;;;;;;;9.77;4.25;;;14.60;61.60;;;;;;5089096;28;20063;-62
2023/03/18 00:19:11;;;;;;;10.45;4.80;;;14.50;61.60;;;;;;5099131;28;20061;-63
2023/03/18 00:21:37;;;;;;;9.57;3.80;;;14.50;61.70;;;;;;5095860;28;20040;-63
2023/03/18 00:24:03;;;;;;;7.47;3.53;;;14.50;61.80;;;;;;5095412;28;20073;-63
2023/03/18 00:26:29;;;;;;;9.50;4.45;;;14.50;61.90;;;;;;5096458;28;20016;-63
2023/03/18 00:28:57;;;;;;;9.65;4.35;;;14.50;62.00;;;;;;5095024;28;20023;-63
2023/03/18 00:31:23;;;;;;;10.73;5.00;;;14.50;62.10;;;;;;5094541;28;20028;-63
2023/03/18 00:33:49;;;;;;;9.13;4.13;;;14.50;62.20;;;;;;5096194;28;20028;-63
2023/03/18 00:36:17;;;;;;;8.00;4.22;;;14.40;62.20;;;;;;5097923;28;20020;-63
2023/03/18 00:38:49;;;;;;;8.93;4.00;;;14.40;62.30;;;;;;5095881;28;20364;-63
2023/03/18 00:41:16;;;;;;;9.63;4.25;;;14.40;62.40;;;;;;5110172;28;20036;-63
2023/03/18 00:43:56;;;;;;;12.65;4.47;;;14.40;62.50;;;;;;5100862;28;20461;-63
2023/03/18 00:46:25;;;;;;;8.88;4.53;;;14.30;62.60;;;;;;5096397;28;20483;-63
2023/03/18 00:48:54;;;;;;;10.20;4.20;;;14.30;62.60;;;;;;5100968;28;20017;-63
2023/03/18 00:51:21;;;;;;;9.40;4.65;;;14.30;62.70;;;;;;5090959;28;20036;-63
2023/03/18 00:53:50;;;;;;;8.90;4.35;;;14.30;62.80;;;;;;5093264;28;20039;-63
2023/03/18 00:56:18;;;;;;;8.90;4.68;;;14.30;63.00;;;;;;5096562;28;20031;-63
2023/03/18 00:58:45;;;;;;;8.10;4.13;;;14.30;63.00;;;;;;5101163;28;20048;-62
2023/03/18 01:01:12;;;;;;;10.02;4.25;;;14.30;63.20;;;;;;5093946;28;20042;-63
2023/03/18 01:03:41;;;;;;;9.68;4.60;;;14.30;63.30;;;;;;5101348;28;20032;-63
2023/03/18 01:06:09;;;;;;;9.02;4.93;;;14.20;63.40;;;;;;5094910;28;20124;-63
2023/03/18 01:08:35;;;;;;;9.57;5.50;;;14.30;63.50;;;;;;5101793;28;20279;-63
2023/03/18 01:11:02;;;;;;;11.88;4.68;;;14.20;63.50;;;;;;5094868;28;20420;-63
2023/03/18 01:13:28;;;;;;;10.30;5.13;;;14.20;63.60;;;;;;5102289;28;20110;-63
2023/03/18 01:15:55;;;;;;;9.80;4.82;;;14.30;63.60;;;;;;5091230;28;20036;-63
2023/03/18 01:18:22;;;;;;;10.25;5.10;;;14.30;63.60;;;;;;5090064;28;20099;-63
2023/03/18 01:20:49;;;;;;;8.98;5.07;;;14.30;63.70;;;;;;5098298;28;20125;-63
2023/03/18 01:23:18;;;;;;;10.48;5.40;;;14.30;63.70;;;;;;5093358;28;20536;-63
2023/03/18 01:25:45;;;;;;;9.48;5.18;;;14.30;63.80;;;;;;5094236;28;20066;-63
2023/03/18 01:28:16;;;;;;;12.55;5.60;;;14.20;63.90;;;;;;5100092;28;20019;-63
2023/03/18 01:30:43;;;;;;;11.27;5.72;;;14.30;64.00;;;;;;5100851;28;20041;-62
2023/03/18 01:33:09;;;;;;;9.68;4.78;;;14.20;63.90;;;;;;5090906;28;20393;-63
2023/03/18 01:35:36;;;;;;;10.88;5.10;;;14.20;64.10;;;;;;5109670;28;20026;-63
2023/03/18 01:38:04;;;;;;;8.88;4.97;;;14.20;64.20;;;;;;5085459;28;20028;-63
2023/03/18 01:40:35;;;;;;;9.38;5.60;;;14.20;64.30;;;;;;5110332;28;20031;-63
2023/03/18 01:43:16;;;;;;;11.50;5.88;;;14.20;64.40;;;;;;5100232;28;20032;-63
2023/03/18 01:45:48;;;;;;;10.63;5.75;;;14.20;64.40;;;;;;5095721;28;20016;-63
2023/03/18 01:48:19;;;;;;;9.77;5.10;;;14.20;64.50;;;;;;5097029;28;20042;-63
2023/03/18 01:50:51;;;;;;;11.43;5.47;;;14.10;64.50;;;;;;5104072;28;20032;-63
2023/03/18 01:53:19;;;;;;;9.73;5.70;;;14.20;64.60;;;;;;5097144;28;20031;-63
2023/03/18 01:55:46;;;;;;;10.43;5.68;;;14.20;64.60;;;;;;5104952;28;20035;-63
2023/03/18 01:58:18;;;;;;;12.13;5.90;;;14.20;64.60;;;;;;5091802;28;20059;-63
2023/03/18 02:00:58;;;;;;;11.23;5.60;;;14.20;64.60;;;;;;5093329;28;20359;-63
2023/03/18 02:03:26;;;;;;;10.32;5.63;;;14.20;64.70;;;;;;5089924;28;20046;-63
2023/03/18 02:05:53;;;;;;;14.40;6.85;;;14.20;64.70;;;;;;5093713;28;20028;-63
2023/03/18 02:08:20;;;;;;;12.05;6.40;;;14.20;64.70;;;;;;5093874;28;20093;-63
2023/03/18 02:10:47;;;;;;;11.93;6.10;;;14.20;64.80;;;;;;5090087;28;20036;-63
2023/03/18 02:13:14;;;;;;;11.52;6.30;;;14.20;64.90;;;;;;5100865;28;20023;-63
2023/03/18 02:15:51;;;;;;;11.75;6.03;;;14.10;65.00;;;;;;5091803;28;20028;-63
2023/03/18 02:18:23;;;;;;;11.85;6.05;;;14.10;65.00;;;;;;5090302;28;20031;-63
2023/03/18 02:21:10;;;;;;;10.95;6.00;;;14.10;65.10;;;;;;5094922;28;20024;-63
2023/03/18 02:23:55;;;;;;;11.00;6.13;;;14.10;65.20;;;;;;5092994;28;20042;-62
2023/03/18 02:26:56;;;;;;;9.73;5.80;;;14.10;65.30;;;;;;5091929;28;20034;-61
2023/03/18 02:29:31;;;;;;;12.93;6.32;;;14.10;65.40;;;;;;5102623;28;20117;-62
2023/03/18 02:32:04;;;;;;;13.18;5.93;;;14.00;65.50;;;;;;5093120;28;20024;-62
2023/03/18 02:34:32;;;;;;;13.23;6.20;;;14.00;65.60;;;;;;5094172;28;20019;-62
2023/03/18 02:36:58;;;;;;;11.00;6.40;;;14.00;66.40;;;;;;5107754;28;20060;-62
2023/03/18 02:39:24;;;;;;;11.85;6.63;;;14.00;65.80;;;;;;5095919;28;20067;-62
2023/03/18 02:41:53;;;;;;;12.55;6.15;;;14.00;65.90;;;;;;5093336;28;20305;-62
2023/03/18 02:44:20;;;;;;;13.23;6.57;;;14.00;66.00;;;;;;5095620;28;20024;-62
2023/03/18 02:47:13;;;;;;;10.38;5.65;;;13.90;66.10;;;;;;5084930;28;20042;-62
2023/03/18 02:49:38;;;;;;;10.52;6.20;;;13.90;66.20;;;;;;5098991;28;20027;-61
2023/03/18 02:52:04;;;;;;;13.25;6.70;;;13.90;66.20;;;;;;5092661;28;20020;-62
2023/03/18 02:54:31;;;;;;;11.52;6.57;;;13.80;66.30;;;;;;5089905;28;20020;-61
2023/03/18 02:56:57;;;;;;;11.52;6.35;;;13.80;66.40;;;;;;5092595;28;20035;-62
2023/03/18 02:59:24;;;;;;;12.02;6.38;;;13.80;66.50;;;;;;5092584;28;20028;-62
2023/03/18 03:01:52;;;;;;;10.60;6.57;;;13.80;66.60;;;;;;5094920;28;20468;-62
2023/03/18 03:04:19;;;;;;;15.00;7.30;;;13.80;66.70;;;;;;5075827;28;20024;-62
2023/03/18 03:06:45;;;;;;;12.80;6.32;;;13.90;66.80;;;;;;5091656;28;20066;-62
2023/03/18 03:09:15;;;;;;;13.13;6.85;;;13.90;66.90;;;;;;5092387;28;20381;-62
2023/03/18 03:11:42;;;;;;;14.02;6.72;;;13.90;67.00;;;;;;5098031;28;20024;-62
2023/03/18 03:14:15;;;;;;;14.13;7.32;;;13.90;67.10;;;;;;5092092;28;20306;-62
2023/03/18 03:16:42;;;;;;;12.00;6.95;;;13.90;67.30;;;;;;5092267;28;20035;-62
2023/03/18 03:19:09;;;;;;;11.98;6.63;;;13.90;67.40;;;;;;5091923;28;20020;-62
2023/03/18 03:21:35;;;;;;;16.42;7.50;;;13.90;67.50;;;;;;5100862;28;20067;-62
2023/03/18 03:24:03;;;;;;;14.18;7.30;;;13.90;67.90;;;;;;5093488;28;20052;-62
2023/03/18 03:26:29;;;;;;;12.95;8.07;;;13.90;68.30;;;;;;5101214;28;20353;-62
2023/03/18 03:28:55;;;;;;;12.43;7.30;;;13.90;68.60;;;;;;5087312;28;20119;-62
2023/03/18 03:31:22;;;;;;;13.80;7.63;;;13.80;68.80;;;;;;5091263;28;20024;-62
2023/03/18 03:33:48;;;;;;;12.75;7.75;;;13.80;69.20;;;;;;5091924;28;20105;-62
2023/03/18 03:36:15;;;;;;;14.73;7.63;;;13.80;69.50;;;;;;5104305;28;20031;-62
2023/03/18 03:38:42;;;;;;;12.70;7.05;;;13.80;69.80;;;;;;5093342;28;20040;-63
2023/03/18 03:41:10;;;;;;;14.48;8.10;;;13.80;70.00;;;;;;5093175;28;20070;-62
2023/03/18 03:43:39;;;;;;;12.65;7.45;;;13.80;70.30;;;;;;5094762;28;20028;-63
2023/03/18 03:46:06;;;;;;;14.45;7.80;;;13.80;70.50;;;;;;5100362;28;20016;-63
2023/03/18 03:48:32;;;;;;;14.82;8.57;;;13.80;70.70;;;;;;5095611;28;20039;-62
2023/03/18 03:50:58;;;;;;;13.70;7.72;;;13.80;70.90;;;;;;5096484;28;20076;-63
2023/03/18 03:53:25;;;;;;;11.90;7.18;;;13.80;71.00;;;;;;5092587;28;20016;-63
2023/03/18 03:55:52;;;;;;;12.50;7.38;;;13.80;71.30;;;;;;5095245;28;20169;-63
2023/03/18 03:58:18;;;;;;;15.00;8.43;;;13.80;71.50;;;;;;5095340;28;20031;-62
2023/03/18 04:00:46;;;;;;;16.52;8.77;;;13.70;71.60;;;;;;5091195;28;20020;-62
2023/03/18 04:03:12;;;;;;;13.82;8.55;;;13.70;71.80;;;;;;5085145;28;20039;-62
2023/03/18 04:05:38;;;;;;;13.73;7.68;;;13.70;72.00;;;;;;5074649;28;20031;-62
2023/03/18 04:08:04;;;;;;;14.02;8.48;;;13.70;72.30;;;;;;5101127;27;20020;-62
2023/03/18 04:10:39;;;;;;;16.25;8.60;;;13.70;72.50;;;;;;5083163;28;20391;-62
2023/03/18 04:13:09;;;;;;;15.13;8.50;;;13.70;72.70;;;;;;5090406;28;20024;-62
2023/03/18 04:15:35;;;;;;;18.63;8.90;;;13.70;72.90;;;;;;5093691;28;20033;-62
2023/03/18 04:18:08;;;;;;;15.32;9.23;;;13.70;73.00;;;;;;5097719;28;20036;-62
2023/03/18 04:20:36;;;;;;;14.95;8.95;;;13.70;73.80;;;;;;5094697;28;20416;-62
2023/03/18 04:23:06;;;;;;;15.07;9.38;;;13.70;73.40;;;;;;5074207;28;20036;-62
2023/03/18 04:25:34;;;;;;;14.18;8.98;;;13.60;73.40;;;;;;5060724;28;20035;-62
2023/03/18 04:28:00;;;;;;;14.60;8.70;;;13.70;73.60;;;;;;5091052;28;20016;-62
2023/03/18 04:30:27;;;;;;;18.52;10.45;;;13.60;73.70;;;;;;5094669;28;20051;-62
2023/03/18 04:33:06;;;;;;;17.45;9.75;;;13.60;73.80;;;;;;5089054;28;20028;-62
2023/03/18 04:35:32;;;;;;;16.27;10.32;;;13.60;73.90;;;;;;5078135;28;20401;-62
2023/03/18 04:38:00;;;;;;;16.90;10.27;;;13.60;74.10;;;;;;5076529;28;20427;-62
2023/03/18 04:40:27;;;;;;;16.15;9.52;;;13.60;74.20;;;;;;5084348;28;20427;-63
2023/03/18 04:42:53;;;;;;;16.52;9.48;;;13.60;74.30;;;;;;5074910;28;20026;-62
2023/03/18 04:45:23;;;;;;;14.32;10.02;;;13.60;74.40;;;;;;5076025;28;20372;-62
2023/03/18 04:47:50;;;;;;;15.93;9.90;;;13.60;74.60;;;;;;5078601;28;20508;-62
2023/03/18 04:50:16;;;;;;;18.38;11.02;;;13.60;74.70;;;;;;5095674;28;20115;-62
2023/03/18 04:52:43;;;;;;;17.60;10.35;;;13.60;74.80;;;;;;5093973;28;20028;-62
2023/03/18 04:55:15;;;;;;;14.88;10.07;;;13.60;75.00;;;;;;5097812;28;20028;-62
2023/03/18 04:57:42;;;;;;;16.17;10.95;;;13.60;75.10;;;;;;5099481;27;20092;-62
2023/03/18 05:00:16;;;;;;;17.10;11.48;;;13.60;75.20;;;;;;5078796;28;20373;-62
2023/03/18 05:02:44;;;;;;;17.25;10.82;;;13.60;75.30;;;;;;5078860;28;20020;-62
2023/03/18 05:05:10;;;;;;;15.05;10.13;;;13.60;75.30;;;;;;5081400;28;20116;-62
2023/03/18 05:07:43;;;;;;;15.73;10.73;;;13.60;75.40;;;;;;5094502;28;20021;-62
2023/03/18 05:10:14;;;;;;;20.42;10.38;;;13.60;75.50;;;;;;5090169;28;20043;-62
2023/03/18 05:12:41;;;;;;;16.42;10.68;;;13.60;75.60;;;;;;5079303;28;20033;-62
2023/03/18 05:15:10;;;;;;;17.90;11.50;;;13.50;75.60;;;;;;5075563;28;20391;-62
2023/03/18 05:17:40;;;;;;;;;;;13.50;75.80;;;;;;5097603;28;20139;-62
2023/03/18 05:20:07;;;;;;;19.95;10.23;;;13.50;75.50;;;;;;5078392;28;20006;-62
2023/03/18 05:22:33;;;;;;;18.60;10.68;;;13.50;75.70;;;;;;5074208;28;20045;-62
2023/03/18 05:25:10;;;;;;;18.73;10.88;;;13.50;75.70;;;;;;5076255;28;20053;-62
2023/03/18 05:27:37;;;;;;;19.08;11.30;;;13.50;75.80;;;;;;5080530;28;20203;-62
2023/03/18 05:30:11;;;;;;;18.77;11.77;;;13.50;75.90;;;;;;5090038;28;20027;-62
2023/03/18 05:32:44;;;;;;;15.93;11.02;;;13.50;76.00;;;;;;5084355;28;20033;-62
2023/03/18 05:35:10;;;;;;;19.42;11.57;;;13.50;76.10;;;;;;5096464;28;20031;-62
2023/03/18 05:37:45;;;;;;;17.48;11.52;;;13.50;76.20;;;;;;5083519;28;20068;-62
2023/03/18 05:40:11;;;;;;;17.60;11.50;;;13.50;76.30;;;;;;5076274;28;20043;-62
2023/03/18 05:42:40;;;;;;;19.77;11.23;;;13.50;76.40;;;;;;5076965;28;20040;-62
2023/03/18 05:45:07;;;;;;;17.85;10.95;;;13.40;76.40;;;;;;5089416;28;20059;-62
2023/03/18 05:47:36;;;;;;;17.20;10.85;;;13.40;76.40;;;;;;5090901;28;20048;-62
2023/03/18 05:50:09;;;;;;;15.70;11.32;;;13.50;76.60;;;;;;5082061;28;20111;-62
2023/03/18 05:52:37;;;;;;;16.48;10.98;;;13.50;76.60;;;;;;5075912;28;20467;-62
2023/03/18 05:55:07;;;;;;;15.82;11.35;;;13.50;76.70;;;;;;5061995;28;20032;-62
2023/03/18 05:57:37;;;;;;;17.08;11.68;;;13.50;76.70;;;;;;5083256;28;20448;-62
2023/03/18 06:00:07;;;;;;;16.40;11.20;;;13.40;76.70;;;;;;5089189;28;20020;-62
2023/03/18 06:02:42;;;;;;;18.15;11.90;;;13.50;76.80;;;;;;5086224;28;20124;-62
2023/03/18 06:05:09;;;;;;;17.83;11.00;;;13.40;76.80;;;;;;5094703;28;20024;-62
2023/03/18 06:07:35;;;;;;;18.42;11.30;;;13.50;77.60;;;;;;5092775;28;20376;-62
2023/03/18 06:10:01;;;;;;;16.25;11.77;;;13.40;76.90;;;;;;5091474;28;20460;-62
2023/03/18 06:12:27;;;;;;;17.35;12.15;;;13.40;77.00;;;;;;5104921;28;20038;-62
2023/03/18 06:14:53;;;;;;;17.85;11.80;;;13.40;77.10;;;;;;5092357;28;20016;-62
2023/03/18 06:17:20;;;;;;;18.27;13.15;;;13.40;77.20;;;;;;5091660;28;20024;-62
2023/03/18 06:19:47;;;;;;;15.13;11.32;;;13.40;77.20;;;;;;5094243;28;20042;-62
2023/03/18 06:22:15;;;;;;;19.30;12.70;;;13.40;77.30;;;;;;5097794;28;20070;-62
2023/03/18 06:24:42;;;;;;;20.15;12.43;;;13.40;77.40;;;;;;5090629;28;20468;-62
2023/03/18 06:27:08;;;;;;;16.48;12.27;;;13.40;77.40;;;;;;5093520;28;20024;-62
2023/03/18 06:29:35;;;;;;;20.02;12.52;;;13.40;77.40;;;;;;5096723;28;20031;-62
2023/03/18 06:32:07;;;;;;;19.58;11.80;;;13.40;77.40;;;;;;5096050;28;20020;-62
2023/03/18 06:34:35;;;;;;;17.63;11.75;;;13.50;77.50;;;;;;5093238;28;20403;-62
2023/03/18 06:37:02;;;;;;;18.70;12.82;;;13.50;77.50;;;;;;5090586;28;20024;-62
2023/03/18 06:39:28;;;;;;;18.23;12.52;;;13.50;77.50;;;;;;5094476;28;20052;-62
2023/03/18 06:41:54;;;;;;;16.67;12.38;;;13.50;77.50;;;;;;5093430;28;20118;-62
2023/03/18 06:44:49;;;;;;;19.73;12.23;;;13.50;77.60;;;;;;5090131;28;20036;-62
2023/03/18 06:47:18;;;;;;;21.63;13.02;;;13.50;77.60;;;;;;5092797;28;20016;-62
2023/03/18 06:49:51;;;;;;;22.85;13.85;;;13.50;77.60;;;;;;5093935;28;20516;-62
2023/03/18 06:52:22;;;;;;;20.10;12.60;;;13.50;77.60;;;;;;5092962;28;20028;-62
2023/03/18 06:54:50;;;;;;;18.60;13.63;;;13.60;77.60;;;;;;5086527;28;20020;-62
2023/03/18 06:57:17;;;;;;;19.40;12.82;;;13.60;77.60;;;;;;5076534;28;20027;-62
2023/03/18 06:59:44;;;;;;;17.52;13.25;;;13.60;77.60;;;;;;5092731;28;20028;-62
2023/03/18 07:02:10;;;;;;;21.25;13.18;;;13.60;77.60;;;;;;5093036;28;20107;-62
2023/03/18 07:04:35;;;;;;;17.25;12.95;;;13.70;77.70;;;;;;5083868;28;20136;-62
2023/03/18 07:07:02;;;;;;;17.67;12.27;;;13.70;77.60;;;;;;5092820;28;20016;-62
2023/03/18 07:09:27;;;;;;;19.42;12.95;;;13.70;77.70;;;;;;5091144;28;20032;-62
2023/03/18 07:11:57;;;;;;;20.38;13.23;;;13.70;77.70;;;;;;5104141;28;21462;-62
2023/03/18 07:14:24;;;;;;;19.40;13.07;;;13.80;77.70;;;;;;5092294;28;20020;-63
2023/03/18 07:16:50;;;;;;;19.48;12.43;;;13.80;77.60;;;;;;5091113;28;20107;-63
2023/03/18 07:19:17;;;;;;;16.88;12.40;;;13.90;77.60;;;;;;5100682;28;20134;-63
2023/03/18 07:21:44;;;;;;;19.38;12.63;;;13.90;77.50;;;;;;5096342;28;20036;-62
2023/03/18 07:24:11;;;;;;;18.95;13.00;;;14.00;77.50;;;;;;5093284;28;20035;-62
2023/03/18 07:26:37;;;;;;;18.92;12.20;;;14.00;77.40;;;;;;5080262;28;20035;-63
2023/03/18 07:29:03;;;;;;;19.25;13.77;;;14.10;77.40;;;;;;5099093;28;20015;-63
2023/03/18 07:31:29;;;;;;;22.15;12.38;;;14.20;77.20;;;;;;5103501;28;20031;-63
2023/03/18 07:33:56;;;;;;;18.83;11.77;;;14.30;77.00;;;;;;5081577;28;20028;-62
2023/03/18 07:36:22;;;;;;;19.30;13.32;;;14.30;76.90;;;;;;5095465;28;20074;-62
2023/03/18 07:38:48;;;;;;;17.58;11.90;;;14.40;76.80;;;;;;5080292;28;20035;-62
2023/03/18 07:41:14;;;;;;;18.67;12.40;;;14.40;76.70;;;;;;5097578;28;20119;-62
2023/03/18 07:43:40;;;;;;;15.70;11.68;;;14.40;76.70;;;;;;5096338;28;20118;-62
2023/03/18 07:46:06;;;;;;;19.50;12.35;;;14.30;76.70;;;;;;5106326;28;20111;-62
2023/03/18 07:48:33;;;;;;;17.70;11.45;;;14.40;76.70;;;;;;5097231;28;20031;-63
2023/03/18 07:50:59;;;;;;;15.90;11.43;;;14.50;76.50;;;;;;5094685;28;20027;-63
2023/03/18 07:53:26;;;;;;;18.30;12.65;;;14.70;76.20;;;;;;5096733;28;20027;-63
2023/03/18 07:55:52;;;;;;;17.35;11.75;;;14.90;75.90;;;;;;5108470;28;20035;-62
2023/03/18 07:58:18;;;;;;;17.48;11.55;;;15.10;75.50;;;;;;5097232;28;20097;-63
2023/03/18 08:00:44;;;;;;;17.42;12.00;;;15.20;75.00;;;;;;5104854;28;20031;-62
2023/03/18 08:03:11;;;;;;;18.35;11.07;;;15.40;74.80;;;;;;5105563;28;20020;-63
2023/03/18 08:05:37;;;;;;;17.33;10.93;;;15.40;74.50;;;;;;5100059;28;20027;-63
2023/03/18 08:08:04;;;;;;;14.57;9.88;;;15.60;74.50;;;;;;5099964;28;20068;-62
2023/03/18 08:10:30;;;;;;;16.90;10.95;;;15.70;74.00;;;;;;5102903;28;20032;-62
2023/03/18 08:12:56;;;;;;;15.05;9.85;;;15.90;73.70;;;;;;5103018;28;20028;-63
2023/03/18 08:15:22;;;;;;;14.93;9.43;;;16.20;73.30;;;;;;5099535;28;20028;-62
2023/03/18 08:17:49;;;;;;;13.57;9.43;;;16.30;72.70;;;;;;5098366;28;20152;-62
2023/03/18 08:20:15;;;;;;;16.08;10.05;;;16.40;72.30;;;;;;5095157;28;20423;-63
2023/03/18 08:22:41;;;;;;;14.77;9.70;;;16.50;72.10;;;;;;5106354;28;20039;-63
2023/03/18 08:25:07;;;;;;;14.25;9.25;;;16.50;71.90;;;;;;5078067;28;20391;-63
2023/03/18 08:27:33;;;;;;;13.02;9.38;;;16.50;71.80;;;;;;5093522;28;20024;-63
2023/03/18 08:29:59;;;;;;;14.10;9.13;;;16.40;71.80;;;;;;5096145;28;20111;-63
2023/03/18 08:32:26;;;;;;;13.35;9.35;;;16.30;71.80;;;;;;5092404;28;20133;-63
2023/03/18 08:34:52;;;;;;;14.05;9.27;;;16.20;72.00;;;;;;5090467;28;20028;-63
2023/03/18 08:37:18;;;;;;;13.93;9.05;;;16.00;72.10;;;;;;5084971;28;20526;-63
2023/03/18 08:39:44;;;;;;;12.98;9.05;;;15.90;72.30;;;;;;5090829;28;20456;-63
2023/03/18 08:42:10;;;;;;;13.40;9.18;;;15.80;72.40;;;;;;5082452;28;20144;-63
2023/03/18 08:44:35;;;;;;;15.73;8.68;;;15.70;72.50;;;;;;5075126;28;20100;-63
2023/03/18 08:47:01;;;;;;;12.68;8.63;;;15.70;72.60;;;;;;5079484;28;20035;-63
2023/03/18 08:49:27;;;;;;;13.63;8.90;;;15.60;72.60;;;;;;5079732;28;20043;-63
2023/03/18 08:51:53;;;;;;;16.10;8.88;;;15.60;72.60;;;;;;5074321;28;20077;-63
2023/03/18 08:54:20;;;;;;;13.25;8.77;;;15.60;72.60;;;;;;5084690;28;20028;-64
2023/03/18 08:56:46;;;;;;;12.73;8.55;;;15.60;72.70;;;;;;5093275;28;20020;-65
2023/03/18 08:59:12;;;;;;;15.02;9.32;;;15.60;72.70;;;;;;5095943;28;20027;-63
2023/03/18 09:01:38;;;;;;;14.27;8.88;;;15.60;72.60;;;;;;5099978;28;20023;-64
2023/03/18 09:04:04;;;;;;;12.93;8.80;;;15.70;72.40;;;;;;5091695;28;20028;-63
2023/03/18 09:06:30;;;;;;;14.55;8.00;;;15.70;72.30;;;;;;5104742;28;20024;-62
2023/03/18 09:08:56;;;;;;;12.20;9.20;;;15.80;72.10;;;;;;5097271;28;20377;-63
2023/03/18 09:11:22;;;;;;;12.52;7.72;;;16.00;71.90;;;;;;5094612;28;20036;-62
2023/03/18 09:13:48;;;;;;;13.35;9.05;;;16.40;71.10;;;;;;5094408;28;20032;-62
2023/03/18 09:16:14;;;;;;;11.65;7.85;;;16.50;70.40;;;;;;5093669;28;20039;-65
2023/03/18 09:18:39;;;;;;;12.70;7.63;;;16.50;70.10;;;;;;5101344;28;20024;-62
2023/03/18 09:21:05;;;;;;;11.55;7.75;;;16.70;69.90;;;;;;5094240;28;20048;-63
2023/03/18 09:23:33;;;;;;;12.90;7.55;;;16.80;69.40;;;;;;5093773;28;20046;-63
2023/03/18 09:25:59;;;;;;;11.07;7.07;;;17.10;69.10;;;;;;5085480;28;20047;-63
2023/03/18 09:28:25;;;;;;;11.95;7.22;;;17.40;68.40;;;;;;5096439;28;20066;-63
2023/03/18 09:30:52;;;;;;;12.05;7.07;;;17.60;67.80;;;;;;5095194;28;20031;-62
2023/03/18 09:33:19;;;;;;;10.75;6.70;;;17.70;67.10;;;;;;5095634;28;20036;-62
2023/03/18 09:35:45;;;;;;;10.63;7.05;;;17.90;66.80;;;;;;5087866;28;20024;-62
2023/03/18 09:38:16;;;;;;;9.82;6.60;;;18.10;66.20;;;;;;5080554;28;20453;-62
2023/03/18 09:40:51;;;;;;;;;;;18.20;65.80;;;;;;5095028;28;20364;-62
2023/03/18 09:43:17;;;;;;;8.65;5.63;;;18.40;65.80;;;;;;5098997;28;20022;-62
2023/03/18 09:46:11;;;;;;;11.30;7.03;;;18.50;65.30;;;;;;5096117;28;20028;-61
2023/03/18 09:48:52;;;;;;;11.15;6.80;;;18.40;65.00;;;;;;5093865;28;20038;-62
2023/03/18 09:51:46;;;;;;;9.57;6.00;;;18.60;64.80;;;;;;5094943;28;20043;-61
2023/03/18 09:54:32;;;;;;;11.10;6.72;;;18.40;64.60;;;;;;5098116;28;20045;-61
2023/03/18 09:56:59;;;;;;;10.35;6.85;;;18.30;64.80;;;;;;5094630;28;20031;-61
2023/03/18 09:59:36;;;;;;;11.80;7.80;;;18.20;65.00;;;;;;5106008;28;20020;-61
2023/03/18 10:02:04;;;;;;;11.23;7.30;;;18.00;65.10;;;;;;5078784;28;20131;-61
2023/03/18 10:04:51;;;;;;;10.25;6.75;;;18.00;65.30;;;;;;5103849;28;20016;-61
2023/03/18 10:07:21;;;;;;;10.32;5.82;;;18.20;65.00;;;;;;5102805;28;20068;-62
2023/03/18 10:10:18;;;;;;;8.23;5.28;;;18.30;64.40;;;;;;5094863;28;20056;-62
2023/03/18 10:12:51;;;;;;;9.02;6.00;;;18.40;63.80;;;;;;5091958;28;20047;-61
2023/03/18 10:15:28;;;;;;;10.27;6.55;;;18.40;63.80;;;;;;5102579;28;20082;-61
2023/03/18 10:18:33;;;;;;;10.05;6.85;;;18.30;63.70;;;;;;5099947;28;20032;-61
2023/03/18 10:21:36;;;;;;;10.45;6.85;;;18.20;63.70;;;;;;5072543;28;20432;-61
2023/03/18 10:24:21;;;;;;;9.02;5.88;;;18.10;63.80;;;;;;5096223;28;20487;-61
2023/03/18 10:26:51;;;;;;;10.02;6.20;;;18.10;64.00;;;;;;5090410;28;20024;-62
2023/03/18 10:29:27;;;;;;;9.93;6.72;;;18.10;64.10;;;;;;5096334;28;20032;-61
2023/03/18 10:32:22;;;;;;;11.63;7.22;;;18.10;64.00;;;;;;5092604;28;20107;-61
2023/03/18 10:35:00;;;;;;;12.50;6.35;;;18.10;63.70;;;;;;5093348;28;20116;-61
2023/03/18 10:37:49;;;;;;;9.38;6.00;;;18.00;63.90;;;;;;5090917;28;20044;-62
2023/03/18 10:40:18;;;;;;;9.98;5.53;;;18.00;63.90;;;;;;5097833;28;20086;-62
2023/03/18 10:42:44;;;;;;;9.57;5.82;;;17.90;64.10;;;;;;5093131;28;20027;-62
2023/03/18 10:45:26;;;;;;;10.18;5.50;;;17.80;64.10;;;;;;5099870;28;20023;-61
2023/03/18 10:48:21;;;;;;;10.82;6.20;;;17.80;64.10;;;;;;5097574;28;20360;-61
2023/03/18 10:51:02;;;;;;;10.15;5.70;;;17.80;64.00;;;;;;5095291;28;20024;-61
2023/03/18 10:53:48;;;;;;;;;;;17.90;63.80;;;;;;5093367;28;20085;-61
2023/03/18 10:56:14;;;;;;;8.30;4.13;;;18.10;63.60;;;;;;5084839;28;19908;-61
2023/03/18 10:58:41;;;;;;;7.57;4.07;;;18.40;63.00;;;;;;5098195;28;20106;-62
2023/03/18 11:01:13;;;;;;;8.85;5.38;;;18.70;62.40;;;;;;5098057;28;20173;-62
2023/03/18 11:03:48;;;;;;;8.07;4.70;;;18.90;61.80;;;;;;5097171;28;20028;-62
2023/03/18 11:06:34;;;;;;;8.63;4.93;;;19.00;61.50;;;;;;5096629;28;20155;-62
2023/03/18 11:09:11;;;;;;;8.70;4.97;;;19.10;61.20;;;;;;5093780;28;20073;-62
2023/03/18 11:11:47;;;;;;;8.40;4.65;;;19.30;60.80;;;;;;5091825;28;20118;-62
2023/03/18 11:14:21;;;;;;;9.25;4.68;;;19.50;60.50;;;;;;5096577;28;20050;-62
2023/03/18 11:16:55;;;;;;;8.55;4.25;;;19.50;60.00;;;;;;5097540;28;20031;-62
2023/03/18 11:19:31;;;;;;;8.05;4.38;;;19.30;60.20;;;;;;5097073;28;20475;-62
2023/03/18 11:22:09;;;;;;;8.82;4.55;;;19.20;60.50;;;;;;5100872;28;20055;-62
2023/03/18 11:24:43;;;;;;;8.05;4.10;;;19.00;60.40;;;;;;5096435;28;20060;-62
2023/03/18 11:27:15;;;;;;;7.03;3.60;;;19.10;60.30;;;;;;5097363;28;20035;-62
2023/03/18 11:29:56;;;;;;;7.30;3.50;;;19.30;59.70;;;;;;5095096;28;20448;-63
2023/03/18 11:32:28;;;;;;;6.25;3.13;;;19.30;59.30;;;;;;5094805;28;20356;-62
2023/03/18 11:35:05;;;;;;;6.20;2.95;;;19.30;59.30;;;;;;5100353;28;20032;-62
2023/03/18 11:37:34;;;;;;;5.50;2.70;;;19.40;59.10;;;;;;5091335;28;20028;-63
2023/03/18 11:40:22;;;;;;;8.15;3.10;;;19.50;59.40;;;;;;5094269;28;20383;-62
2023/03/18 11:42:54;;;;;;;6.07;2.67;;;19.70;58.20;;;;;;5086030;28;20471;-63
2023/03/18 11:45:26;;;;;;;5.95;2.90;;;19.80;58.10;;;;;;5099007;28;20052;-62
2023/03/18 11:47:53;;;;;;;7.10;3.22;;;19.90;58.00;;;;;;5097504;28;20448;-62
2023/03/18 11:50:24;;;;;;;7.93;3.20;;;19.90;57.80;;;;;;5096273;28;20474;-63
2023/03/18 11:52:56;;;;;;;5.85;2.50;;;19.90;57.50;;;;;;5104559;28;20032;-62
2023/03/18 11:55:31;;;;;;;7.80;2.90;;;19.80;57.30;;;;;;5109595;28;20028;-62
2023/03/18 11:58:15;;;;;;;7.47;2.63;;;19.80;57.30;;;;;;5097336;28;20024;-62
2023/03/18 12:00:47;;;;;;;7.40;2.75;;;19.90;57.10;;;;;;5104887;28;20024;-62
2023/03/18 12:03:27;;;;;;;7.78;2.72;;;19.80;56.80;;;;;;5110018;28;20333;-62
2023/03/18 12:06:15;;;;;;;7.47;2.42;;;19.70;57.00;;;;;;5102507;28;20417;-63
2023/03/18 12:09:16;;;;;;;6.43;2.40;;;19.80;57.00;;;;;;5096933;28;20024;-63
2023/03/18 12:12:11;;;;;;;6.47;2.80;;;19.80;56.80;;;;;;5096385;28;20044;-62
2023/03/18 12:15:17;;;;;;;8.07;3.03;;;19.70;56.90;;;;;;5085362;28;20054;-63
2023/03/18 12:18:02;;;;;;;5.70;2.60;;;19.50;57.00;;;;;;5092552;28;20044;-62
2023/03/18 12:20:49;;;;;;;5.70;2.53;;;19.40;57.10;;;;;;5101521;28;20456;-62
2023/03/18 12:23:24;;;;;;;6.22;3.00;;;19.30;57.10;;;;;;5099719;28;20061;-62
2023/03/18 12:26:25;;;;;;;8.13;3.53;;;19.20;57.30;;;;;;5093753;28;20492;-62
2023/03/18 12:29:24;;;;;;;7.43;3.75;;;19.10;57.70;;;;;;5095039;28;20132;-62
2023/03/18 12:32:05;;;;;;;8.23;3.75;;;19.00;58.00;;;;;;5086463;28;20510;-62
2023/03/18 12:34:59;;;;;;;8.10;3.28;;;18.90;58.40;;;;;;5100328;28;20044;-62
2023/03/18 12:37:49;;;;;;;7.93;3.15;;;18.80;58.60;;;;;;5091890;28;20127;-62
2023/03/18 12:40:24;;;;;;;7.43;3.30;;;18.70;58.70;;;;;;5093877;28;20044;-62
2023/03/18 12:43:23;;;;;;;7.57;3.30;;;18.60;58.80;;;;;;5096749;28;20020;-62
2023/03/18 12:45:56;;;;;;;7.30;3.03;;;18.60;58.70;;;;;;5083106;28;20154;-62
2023/03/18 12:48:31;;;;;;;5.75;3.00;;;18.50;58.80;;;;;;5096763;28;20386;-62
2023/03/18 12:51:11;;;;;;;7.40;2.90;;;18.50;58.80;;;;;;5095354;28;20415;-62
2023/03/18 12:53:47;;;;;;;7.97;2.85;;;18.50;58.80;;;;;;5090173;28;20036;-62
2023/03/18 12:56:21;;;;;;;6.80;2.90;;;18.50;58.70;;;;;;5082404;28;20097;-62
2023/03/18 12:58:53;;;;;;;6.45;3.33;;;18.40;58.60;;;;;;5090258;28;20375;-62